Relax — RELAX — position and weather

sailwx.info

Track history (hours):
 
Tides and Currents Weather Stations Pressure Air Temp Water Temp Dewpoint Dewpoint Depression Visibility Wind Speed Wind Dir Waves Ship Positions

Relax

Last reported at 2017-Sep-14 14:05 UTC. Time now 2017-Nov-20 07:50 UTC.
Position N 39°24' W 076°05'.
Warning: this ship's position is months out of date.

Length 10 m.

Type: Pleasure craft. MMSI: 338227273.

Date/timePositionNaut miles runAvg speedWind from/ knotsBaromVisibWave heightAir tempDewpointWater temp
2017-Sep-14 14:05N 39°24' W 076°05'1 8.9
2017-Sep-14 13:55N 39°24' W 076°04'4 8.5
2017-Sep-14 13:28N 39°27' W 075°60'4 8.4
2017-Sep-14 13:00N 39°30' W 075°56'4 8.3
2017-Sep-14 12:30N 39°32' W 075°52'2 4.3
2017-Sep-14 11:58N 39°32' W 075°49'0 0.0
2017-Sep-14 11:25N 39°32' W 075°49'0 0.0
2017-Sep-14 10:58N 39°32' W 075°49'0 0.0
2017-Sep-14 10:28N 39°32' W 075°49'0 0.0
2017-Sep-14 09:58N 39°32' W 075°49'0 0.0
2017-Sep-14 09:25N 39°32' W 075°49'0 0.0
2017-Sep-14 08:58N 39°32' W 075°49'0 0.0
2017-Sep-14 08:25N 39°32' W 075°49'0 0.0
2017-Sep-14 07:58N 39°32' W 075°49'0 0.0
2017-Sep-14 07:28N 39°32' W 075°49'0 0.0
2017-Sep-14 06:58N 39°32' W 075°49'0 0.0
2017-Sep-14 06:28N 39°32' W 075°49'0 0.0
2017-Sep-14 05:58N 39°32' W 075°49'0 0.0
2017-Sep-14 05:25N 39°32' W 075°49'0 0.0
2017-Sep-14 04:49N 39°32' W 075°49'0 0.0
2017-Sep-14 04:25N 39°32' W 075°49'0 0.0
2017-Sep-14 03:55N 39°32' W 075°49'0 0.0
2017-Sep-14 03:19N 39°32' W 075°49'0 0.0
2017-Sep-14 02:49N 39°32' W 075°49'0 0.0
2017-Sep-14 02:28N 39°32' W 075°49'0 0.0
2017-Sep-14 01:49N 39°32' W 075°49'0 0.0
2017-Sep-14 01:28N 39°32' W 075°49'0 0.0
2017-Sep-14 00:58N 39°32' W 075°49'0 0.0
2017-Sep-14 00:28N 39°32' W 075°49'0 0.0
2017-Sep-13 23:58N 39°32' W 075°49'0 0.0
2017-Sep-13 23:28N 39°32' W 075°49'0 0.0
2017-Sep-13 22:52N 39°32' W 075°49'0 0.0
2017-Sep-13 22:28N 39°32' W 075°49'0 0.0
2017-Sep-13 21:58N 39°32' W 075°49'0 0.0
2017-Sep-13 21:28N 39°32' W 075°49'0 0.0
2017-Sep-13 20:58N 39°32' W 075°49'1 2.0
2017-Sep-13 20:29N 39°32' W 075°47'4 8.6
2017-Sep-13 20:00N 39°33' W 075°42'4 7.1
2017-Sep-13 19:30N 39°33' W 075°38'3 6.8
2017-Sep-13 19:00N 39°33' W 075°33'5 9.1
2017-Sep-13 18:30N 39°29' W 075°33'5 9.1
2017-Sep-13 18:00N 39°25' W 075°30'4 8.4
2017-Sep-13 17:30N 39°22' W 075°27'4 8.7
2017-Sep-13 17:00N 39°18' W 075°23'4 8.4
2017-Sep-13 16:30N 39°15' W 075°19'4 7.5
2017-Sep-13 15:56N 39°12' W 075°16'22 4.5
2017-Sep-13 10:56N 38°57' W 074°54'0 0.0
2017-Sep-13 10:29N 38°57' W 074°54'0 0.0
2017-Sep-13 09:59N 38°57' W 074°54'0 0.0
2017-Sep-13 09:20N 38°57' W 074°54'0 0.0
2017-Sep-13 08:56N 38°57' W 074°54'0 0.0
2017-Sep-13 08:29N 38°57' W 074°54'0 0.0
2017-Sep-13 07:59N 38°57' W 074°54'0 0.0
2017-Sep-13 07:29N 38°57' W 074°54'0 0.0
2017-Sep-13 06:59N 38°57' W 074°54'0 0.0
2017-Sep-13 06:11N 38°57' W 074°54'0 0.0
2017-Sep-13 05:56N 38°57' W 074°54'0 0.0
2017-Sep-13 05:20N 38°57' W 074°54'0 0.0
2017-Sep-13 04:59N 38°57' W 074°54'0 0.0
2017-Sep-13 04:26N 38°57' W 074°54'0 0.0
2017-Sep-13 03:56N 38°57' W 074°54'0 0.0
2017-Sep-13 03:29N 38°57' W 074°54'0 0.0
2017-Sep-13 02:50N 38°57' W 074°54'0 0.0
2017-Sep-13 02:26N 38°57' W 074°54'0 0.0
2017-Sep-13 01:53N 38°57' W 074°54'0 0.0
2017-Sep-13 01:20N 38°57' W 074°54'0 0.0
2017-Sep-13 00:59N 38°57' W 074°54'0 0.0
2017-Sep-13 00:26N 38°57' W 074°54'0 0.0
2017-Sep-12 23:56N 38°57' W 074°54'0 0.0
2017-Sep-12 09:14N 38°57' W 074°54'0 0.0
2017-Sep-12 08:56N 38°57' W 074°54'0 0.0
2017-Sep-12 08:23N 38°57' W 074°54'0 0.0
2017-Sep-12 07:56N 38°57' W 074°54'13 0.7
2017-Sep-11 13:25N 39°07' W 074°43'39 0.8
2017-Sep-09 13:25N 39°38' W 074°12'2 5.5
2017-Sep-09 13:00N 39°40' W 074°11'4 7.1
2017-Sep-09 12:30N 39°43' W 074°08'4 6.4
2017-Sep-09 11:57N 39°47' W 074°10'2 5.0
2017-Sep-09 11:30N 39°47' W 074°07'2 2.5
2017-Sep-09 10:50N 39°45' W 074°07'0 0.0
2017-Sep-09 10:26N 39°45' W 074°07'0 0.0
2017-Sep-09 09:50N 39°45' W 074°07'0 0.0
2017-Sep-09 09:26N 39°45' W 074°07'0 0.0
2017-Sep-09 08:56N 39°45' W 074°07'0 0.0
2017-Sep-09 08:26N 39°45' W 074°07'0 0.0
2017-Sep-09 07:50N 39°45' W 074°07'0 0.0
2017-Sep-09 07:26N 39°45' W 074°07'0 0.0
2017-Sep-09 06:44N 39°45' W 074°07'0 0.0
2017-Sep-09 06:26N 39°45' W 074°07'0 0.0
2017-Sep-09 05:50N 39°45' W 074°07'0 0.0
2017-Sep-09 05:20N 39°45' W 074°07'0 0.0
2017-Sep-09 04:50N 39°45' W 074°07'0 0.0
2017-Sep-09 04:26N 39°45' W 074°07'0 0.0
2017-Sep-09 03:56N 39°45' W 074°07'0 0.0
2017-Sep-09 03:20N 39°45' W 074°07'0 0.0
2017-Sep-09 02:56N 39°45' W 074°07'0 0.0
2017-Sep-09 02:26N 39°45' W 074°07'0 0.0
2017-Sep-09 01:56N 39°46' W 074°07'0 0.0
2017-Sep-09 01:26N 39°46' W 074°07'0 0.0
2017-Sep-09 00:26N 39°46' W 074°07'0 0.0
2017-Sep-08 23:50N 39°46' W 074°07'0 0.0
2017-Sep-08 23:14N 39°46' W 074°07'0 0.0
2017-Sep-08 22:02N 39°46' W 074°07'0 0.0
2017-Sep-08 21:56N 39°46' W 074°07'0 0.0
2017-Sep-08 21:14N 39°45' W 074°07'0 0.0
2017-Sep-08 19:44N 39°46' W 074°07'0 0.0
2017-Sep-08 19:20N 39°45' W 074°07'0 0.0
2017-Sep-08 18:56N 39°46' W 074°07'0 0.0
2017-Sep-08 18:26N 39°46' W 074°07'2 4.2
2017-Sep-08 17:53N 39°48' W 074°08'49 2.2
2017-Sep-07 19:29N 40°36' W 074°03'510.6
2017-Sep-07 19:00N 40°41' W 074°02'611.1
2017-Sep-07 18:30N 40°47' W 073°60'  
Track history (hours):
 
Tides and Currents Weather Stations Pressure Air Temp Water Temp Dewpoint Dewpoint Depression Visibility Wind Speed Wind Dir Waves Ship Positions

Relax

Last reported at 2017-Sep-14 14:05 UTC. Time now 2017-Nov-20 07:50 UTC.
Position N 39°24' W 076°05'.
Warning: this ship's position is months out of date.

Length 10 m.

Type: Pleasure craft. MMSI: 338227273.

Date/timePositionNaut miles runAvg speedWind from/ knotsBaromVisibWave heightAir tempDewpointWater temp
2017-Sep-14 14:05N 39°24' W 076°05'1 8.9
2017-Sep-14 13:55N 39°24' W 076°04'4 8.5
2017-Sep-14 13:28N 39°27' W 075°60'4 8.4
2017-Sep-14 13:00N 39°30' W 075°56'4 8.3
2017-Sep-14 12:30N 39°32' W 075°52'2 4.3
2017-Sep-14 11:58N 39°32' W 075°49'0 0.0
2017-Sep-14 11:25N 39°32' W 075°49'0 0.0
2017-Sep-14 10:58N 39°32' W 075°49'0 0.0
2017-Sep-14 10:28N 39°32' W 075°49'0 0.0
2017-Sep-14 09:58N 39°32' W 075°49'0 0.0
2017-Sep-14 09:25N 39°32' W 075°49'0 0.0
2017-Sep-14 08:58N 39°32' W 075°49'0 0.0
2017-Sep-14 08:25N 39°32' W 075°49'0 0.0
2017-Sep-14 07:58N 39°32' W 075°49'0 0.0
2017-Sep-14 07:28N 39°32' W 075°49'0 0.0
2017-Sep-14 06:58N 39°32' W 075°49'0 0.0
2017-Sep-14 06:28N 39°32' W 075°49'0 0.0
2017-Sep-14 05:58N 39°32' W 075°49'0 0.0
2017-Sep-14 05:25N 39°32' W 075°49'0 0.0
2017-Sep-14 04:49N 39°32' W 075°49'0 0.0
2017-Sep-14 04:25N 39°32' W 075°49'0 0.0
2017-Sep-14 03:55N 39°32' W 075°49'0 0.0
2017-Sep-14 03:19N 39°32' W 075°49'0 0.0
2017-Sep-14 02:49N 39°32' W 075°49'0 0.0
2017-Sep-14 02:28N 39°32' W 075°49'0 0.0
2017-Sep-14 01:49N 39°32' W 075°49'0 0.0
2017-Sep-14 01:28N 39°32' W 075°49'0 0.0
2017-Sep-14 00:58N 39°32' W 075°49'0 0.0
2017-Sep-14 00:28N 39°32' W 075°49'0 0.0
2017-Sep-13 23:58N 39°32' W 075°49'0 0.0
2017-Sep-13 23:28N 39°32' W 075°49'0 0.0
2017-Sep-13 22:52N 39°32' W 075°49'0 0.0
2017-Sep-13 22:28N 39°32' W 075°49'0 0.0
2017-Sep-13 21:58N 39°32' W 075°49'0 0.0
2017-Sep-13 21:28N 39°32' W 075°49'0 0.0
2017-Sep-13 20:58N 39°32' W 075°49'1 2.0
2017-Sep-13 20:29N 39°32' W 075°47'4 8.6
2017-Sep-13 20:00N 39°33' W 075°42'4 7.1
2017-Sep-13 19:30N 39°33' W 075°38'3 6.8
2017-Sep-13 19:00N 39°33' W 075°33'5 9.1
2017-Sep-13 18:30N 39°29' W 075°33'5 9.1
2017-Sep-13 18:00N 39°25' W 075°30'4 8.4
2017-Sep-13 17:30N 39°22' W 075°27'4 8.7
2017-Sep-13 17:00N 39°18' W 075°23'4 8.4
2017-Sep-13 16:30N 39°15' W 075°19'4 7.5
2017-Sep-13 15:56N 39°12' W 075°16'22 4.5
2017-Sep-13 10:56N 38°57' W 074°54'0 0.0
2017-Sep-13 10:29N 38°57' W 074°54'0 0.0
2017-Sep-13 09:59N 38°57' W 074°54'0 0.0
2017-Sep-13 09:20N 38°57' W 074°54'0 0.0
2017-Sep-13 08:56N 38°57' W 074°54'0 0.0
2017-Sep-13 08:29N 38°57' W 074°54'0 0.0
2017-Sep-13 07:59N 38°57' W 074°54'0 0.0
2017-Sep-13 07:29N 38°57' W 074°54'0 0.0
2017-Sep-13 06:59N 38°57' W 074°54'0 0.0
2017-Sep-13 06:11N 38°57' W 074°54'0 0.0
2017-Sep-13 05:56N 38°57' W 074°54'0 0.0
2017-Sep-13 05:20N 38°57' W 074°54'0 0.0
2017-Sep-13 04:59N 38°57' W 074°54'0 0.0
2017-Sep-13 04:26N 38°57' W 074°54'0 0.0
2017-Sep-13 03:56N 38°57' W 074°54'0 0.0
2017-Sep-13 03:29N 38°57' W 074°54'0 0.0
2017-Sep-13 02:50N 38°57' W 074°54'0 0.0
2017-Sep-13 02:26N 38°57' W 074°54'0 0.0
2017-Sep-13 01:53N 38°57' W 074°54'0 0.0
2017-Sep-13 01:20N 38°57' W 074°54'0 0.0
2017-Sep-13 00:59N 38°57' W 074°54'0 0.0
2017-Sep-13 00:26N 38°57' W 074°54'0 0.0
2017-Sep-12 23:56N 38°57' W 074°54'0 0.0
2017-Sep-12 09:14N 38°57' W 074°54'0 0.0
2017-Sep-12 08:56N 38°57' W 074°54'0 0.0
2017-Sep-12 08:23N 38°57' W 074°54'0 0.0
2017-Sep-12 07:56N 38°57' W 074°54'13 0.7
2017-Sep-11 13:25N 39°07' W 074°43'39 0.8
2017-Sep-09 13:25N 39°38' W 074°12'2 5.5
2017-Sep-09 13:00N 39°40' W 074°11'4 7.1
2017-Sep-09 12:30N 39°43' W 074°08'4 6.4
2017-Sep-09 11:57N 39°47' W 074°10'2 5.0
2017-Sep-09 11:30N 39°47' W 074°07'2 2.5
2017-Sep-09 10:50N 39°45' W 074°07'0 0.0
2017-Sep-09 10:26N 39°45' W 074°07'0 0.0
2017-Sep-09 09:50N 39°45' W 074°07'0 0.0
2017-Sep-09 09:26N 39°45' W 074°07'0 0.0
2017-Sep-09 08:56N 39°45' W 074°07'0 0.0
2017-Sep-09 08:26N 39°45' W 074°07'0 0.0
2017-Sep-09 07:50N 39°45' W 074°07'0 0.0
2017-Sep-09 07:26N 39°45' W 074°07'0 0.0
2017-Sep-09 06:44N 39°45' W 074°07'0 0.0
2017-Sep-09 06:26N 39°45' W 074°07'0 0.0
2017-Sep-09 05:50N 39°45' W 074°07'0 0.0
2017-Sep-09 05:20N 39°45' W 074°07'0 0.0
2017-Sep-09 04:50N 39°45' W 074°07'0 0.0
2017-Sep-09 04:26N 39°45' W 074°07'0 0.0
2017-Sep-09 03:56N 39°45' W 074°07'0 0.0
2017-Sep-09 03:20N 39°45' W 074°07'0 0.0
2017-Sep-09 02:56N 39°45' W 074°07'0 0.0
2017-Sep-09 02:26N 39°45' W 074°07'0 0.0
2017-Sep-09 01:56N 39°46' W 074°07'0 0.0
2017-Sep-09 01:26N 39°46' W 074°07'0 0.0
2017-Sep-09 00:26N 39°46' W 074°07'0 0.0
2017-Sep-08 23:50N 39°46' W 074°07'0 0.0
2017-Sep-08 23:14N 39°46' W 074°07'0 0.0
2017-Sep-08 22:02N 39°46' W 074°07'0 0.0
2017-Sep-08 21:56N 39°46' W 074°07'0 0.0
2017-Sep-08 21:14N 39°45' W 074°07'0 0.0
2017-Sep-08 19:44N 39°46' W 074°07'0 0.0
2017-Sep-08 19:20N 39°45' W 074°07'0 0.0
2017-Sep-08 18:56N 39°46' W 074°07'0 0.0
2017-Sep-08 18:26N 39°46' W 074°07'2 4.2
2017-Sep-08 17:53N 39°48' W 074°08'49 2.2
2017-Sep-07 19:29N 40°36' W 074°03'510.6
2017-Sep-07 19:00N 40°41' W 074°02'611.1
2017-Sep-07 18:30N 40°47' W 073°60'  

Dump ship's entire track history